GW1242 Weather Reports


Display with metric or nautical units.
time (UTC)temp
F
wind
direction
speed
MPH
gust
MPH
rain 1hr
in
rain 24hr
in
rain mn
in
humidity
%
barometer
mb
20240520050118 57 270 0.0 0.0 0.00 0.00 0.00 95 1112.0
20240520044618 57 270 0.0 0.0 0.00 0.00 0.00 95 1112.0
20240520043116 57 270 0.0 0.0 0.00 0.00 0.00 94 1112.0
20240520041539 58 270 0.0 0.0 0.00 0.00 0.00 94 1112.0
20240520040144 58 270 0.0 0.0 0.00 0.00 0.00 93 1112.0
20240520034608 58 270 0.0 1.0 0.00 0.00 0.00 93 1112.0
20240520033042 59 270 0.0 0.0 0.00 0.00 0.00 93 1111.9
20240520031617 59 270 0.0 0.0 0.00 0.00 0.00 92 1111.8
20240520030035 59 270 0.0 0.0 0.00 0.00 0.00 91 1111.8
20240520024534 60 270 0.0 0.0 0.00 0.00 0.00 90 1111.7
20240520023032 60 270 0.0 0.0 0.00 0.00 0.00 89 1111.6
20240520020042 62 270 0.0 0.0 0.00 0.00 0.00 86 1110.9
20240520014541 63 270 0.0 0.0 0.00 0.00 0.00 84 1110.7
20240520013053 64 270 0.0 0.0 0.00 0.00 0.00 82 1110.6
20240520011541 66 270 0.0 0.0 0.00 0.00 0.00 79 1110.4
20240520010143 68 301 0.0 0.0 0.00 0.00 0.00 74 1110.3
20240520004553 71 315 0.0 0.0 0.00 0.00 0.00 64 1110.3
20240520003032 76 315 0.0 0.0 0.00 0.00 0.00 59 1110.2
20240520001540 80 347 0.0 0.0 0.00 0.00 0.00 51 1109.9
20240520000031 82 32 0.0 1.0 0.00 0.00 0.00 46 1109.6
20240519234534 83 41 0.0 3.0 0.00 0.00 0.00 44 1109.5
20240519233145 84 22 0.0 2.0 0.00 0.00 0.00 43 1109.5
20240519231540 84 40 0.0 4.0 0.00 0.00 0.00 41 1109.3
20240519230051 84 17 1.0 5.0 0.00 0.00 0.00 41 1109.1
20240519224542 85 44 2.0 6.0 0.00 0.00 0.00 42 1109.1
20240519223042 85 76 0.0 3.0 0.00 0.00 0.00 42 1109.0
20240519221616 84 64 1.0 5.0 0.00 0.00 0.00 42 1109.1
20240519214554 84 44 2.0 11.0 0.00 0.00 0.00 44 1109.2
20240519213033 85 44 1.0 6.0 0.00 0.00 0.00 44 1109.2
20240519211541 83 33 1.0 6.0 0.00 0.00 0.00 50 1109.4
20240519210030 81 21 0.0 3.0 0.00 0.00 0.00 52 1109.6
20240519204540 81 15 1.0 4.0 0.00 0.00 0.00 47 1109.6
20240519203031 83 32 2.0 6.0 0.00 0.00 0.00 46 1109.6
20240519201543 84 4 1.0 7.0 0.00 0.00 0.00 46 1109.6
20240519200033 84 105 1.0 7.0 0.00 0.00 0.00 46 1109.7
20240519194616 85 355 1.0 5.0 0.00 0.00 0.00 46 1109.9
20240519191541 82 52 1.0 4.0 0.00 0.00 0.00 50 1110.2
20240519190040 82 95 2.0 8.0 0.00 0.00 0.00 51 1110.3
20240519184554 82 107 4.0 10.0 0.00 0.00 0.00 51 1110.5
20240519183116 82 130 2.0 10.0 0.00 0.00 0.00 52 1110.7
20240519181553 82 66 3.0 7.0 0.00 0.00 0.00 53 1110.8
20240519180033 82 62 1.0 5.0 0.00 0.00 0.00 56 1111.0
20240519174543 80 105 2.0 8.0 0.00 0.00 0.00 59 1111.0
20240519173107 79 100 3.0 8.0 0.00 0.00 0.00 60 1111.1
20240519171542 79 102 3.0 10.0 0.00 0.00 0.00 61 1111.4
20240519164549 78 101 2.0 8.0 0.00 0.00 0.00 65 1111.5
20240519163116 77 100 3.0 9.0 0.00 0.00 0.00 67 1111.6
20240519161539 78 91 3.0 9.0 0.00 0.00 0.00 65 1111.7
20240519160036 79 83 2.0 7.0 0.00 0.00 0.00 65 1111.7
20240519153033 76 109 1.0 6.0 0.00 0.00 0.00 70 1111.7
20240519150044 77 104 1.0 6.0 0.00 0.00 0.00 70 1111.5
20240519144552 75 111 0.0 5.0 0.00 0.00 0.00 72 1111.5
20240519143041 75 89 1.0 6.0 0.00 0.00 0.00 74 1111.4
20240519141541 72 94 3.0 8.0 0.00 0.00 0.00 76 1111.4
20240519140031 72 89 2.0 6.0 0.00 0.04 0.00 78 1111.4
20240519134618 71 87 2.0 6.0 0.00 0.04 0.00 84 1111.5
20240519133117 70 104 1.0 7.0 0.00 0.04 0.00 92 1111.4
20240519131541 67 40 0.0 4.0 0.00 0.04 0.00 97 1111.3
20240519130040 66 123 0.0 5.0 0.00 0.04 0.00 98 1111.5
20240519124540 65 230 0.0 0.0 0.00 0.04 0.00 98 1111.5
20240519123029 64 247 0.0 0.0 0.00 0.04 0.00 98 1111.5
20240519121532 64 231 0.0 0.0 0.00 0.04 0.00 99 1111.4
20240519114540 62 287 0.0 0.0 0.00 0.04 0.00 99 1111.2
20240519113043 61 191 0.0 0.0 0.00 0.04 0.00 98 1111.1
20240519111542 60 180 0.0 0.0 0.00 0.04 0.00 98 1110.9
20240519110033 60 180 0.0 0.0 0.00 0.04 0.00 98 1110.8
20240519103033 59 180 0.0 0.0 0.00 0.04 0.00 98 1110.1
20240519101539 59 180 0.0 0.0 0.00 0.04 0.00 98 1109.9
20240519100049 58 180 0.0 0.0 0.00 0.04 0.00 98 1109.8
20240519094531 58 180 0.0 0.0 0.00 0.04 0.00 98 1109.6
20240519093042 58 180 0.0 0.0 0.00 0.04 0.00 98 1109.5
20240519091543 58 180 0.0 0.0 0.00 0.04 0.00 98 1109.3
20240519084541 59 180 0.0 0.0 0.00 0.04 0.00 98 1109.0
20240519080031 60 180 0.0 0.0 0.00 0.04 0.00 97 1108.8
20240519074650 60 180 0.0 0.0 0.00 0.04 0.00 97 1108.8
20240519073144 60 180 0.0 0.0 0.00 0.04 0.00 97 1108.8
20240519071643 59 180 0.0 0.0 0.00 0.04 0.00 97 1108.7
20240519063039 60 180 0.0 0.0 0.00 0.05 0.00 97 1108.9
20240519061540 61 180 0.0 0.0 0.00 0.05 0.00 97 1108.9
20240519060030 61 180 0.0 0.0 0.00 0.05 0.00 97 1108.8
20240519054618 60 180 0.0 0.0 0.00 0.05 0.00 97 1108.9
20240519053034 60 180 0.0 0.0 0.00 0.05 0.00 97 1109.0
20240519051549 61 180 0.0 0.0 0.00 0.05 0.00 97 1109.0